sensor_id;sensor_type;location;lat;lon;timestamp;temperature;humidity
25716;DHT22;13573;50.936;4.328;2023-02-26T00:04:54;2.30;99.90
25716;DHT22;13573;50.936;4.328;2023-02-26T00:07:20;2.80;99.90
25716;DHT22;13573;50.936;4.328;2023-02-26T00:09:47;2.90;99.90
25716;DHT22;13573;50.936;4.328;2023-02-26T00:12:14;2.60;99.90
25716;DHT22;13573;50.936;4.328;2023-02-26T00:17:28;2.40;99.90
25716;DHT22;13573;50.936;4.328;2023-02-26T00:19:55;2.70;99.90
25716;DHT22;13573;50.936;4.328;2023-02-26T00:22:23;2.60;99.90
25716;DHT22;13573;50.936;4.328;2023-02-26T00:24:49;1.40;99.90
25716;DHT22;13573;50.936;4.328;2023-02-26T00:27:16;2.60;99.90
25716;DHT22;13573;50.936;4.328;2023-02-26T00:29:43;2.20;99.90
25716;DHT22;13573;50.936;4.328;2023-02-26T00:32:11;2.50;99.90
25716;DHT22;13573;50.936;4.328;2023-02-26T00:34:37;2.50;99.90
25716;DHT22;13573;50.936;4.328;2023-02-26T00:37:16;2.80;99.90
25716;DHT22;13573;50.936;4.328;2023-02-26T00:40:37;2.20;99.90
25716;DHT22;13573;50.936;4.328;2023-02-26T00:42:48;2.30;99.90
25716;DHT22;13573;50.936;4.328;2023-02-26T00:45:15;2.20;99.90
25716;DHT22;13573;50.936;4.328;2023-02-26T00:47:48;1.90;99.90
25716;DHT22;13573;50.936;4.328;2023-02-26T00:50:18;2.20;99.90
25716;DHT22;13573;50.936;4.328;2023-02-26T00:52:58;2.30;99.90
25716;DHT22;13573;50.936;4.328;2023-02-26T00:55:22;2.20;99.90
25716;DHT22;13573;50.936;4.328;2023-02-26T00:57:49;2.20;99.90
25716;DHT22;13573;50.936;4.328;2023-02-26T01:00:16;2.80;99.90
25716;DHT22;13573;50.936;4.328;2023-02-26T01:02:43;1.80;99.90
25716;DHT22;13573;50.936;4.328;2023-02-26T01:05:11;0.90;99.90
25716;DHT22;13573;50.936;4.328;2023-02-26T01:07:46;2.50;99.90
25716;DHT22;13573;50.936;4.328;2023-02-26T01:10:14;2.30;99.90
25716;DHT22;13573;50.936;4.328;2023-02-26T01:12:41;1.80;99.90
25716;DHT22;13573;50.936;4.328;2023-02-26T01:15:09;2.80;99.90
25716;DHT22;13573;50.936;4.328;2023-02-26T01:17:44;2.20;99.90
25716;DHT22;13573;50.936;4.328;2023-02-26T01:20:18;2.30;99.90
25716;DHT22;13573;50.936;4.328;2023-02-26T01:22:53;2.70;99.90
25716;DHT22;13573;50.936;4.328;2023-02-26T01:25:28;2.40;99.90
25716;DHT22;13573;50.936;4.328;2023-02-26T01:27:55;2.80;99.90
25716;DHT22;13573;50.936;4.328;2023-02-26T01:30:23;2.00;99.90
25716;DHT22;13573;50.936;4.328;2023-02-26T01:32:57;1.80;99.90
25716;DHT22;13573;50.936;4.328;2023-02-26T01:35:45;2.20;99.90
25716;DHT22;13573;50.936;4.328;2023-02-26T01:38:26;2.50;99.90
25716;DHT22;13573;50.936;4.328;2023-02-26T01:41:18;2.30;99.90
25716;DHT22;13573;50.936;4.328;2023-02-26T01:43:52;2.60;99.90
25716;DHT22;13573;50.936;4.328;2023-02-26T01:46:26;2.10;99.90
25716;DHT22;13573;50.936;4.328;2023-02-26T01:48:56;1.80;99.90
25716;DHT22;13573;50.936;4.328;2023-02-26T01:51:40;1.90;99.90
25716;DHT22;13573;50.936;4.328;2023-02-26T01:54:07;2.20;99.90
25716;DHT22;13573;50.936;4.328;2023-02-26T01:56:34;2.00;99.90
25716;DHT22;13573;50.936;4.328;2023-02-26T01:59:03;1.80;99.90
25716;DHT22;13573;50.936;4.328;2023-02-26T02:01:32;2.40;99.90
25716;DHT22;13573;50.936;4.328;2023-02-26T02:03:59;2.20;99.90
25716;DHT22;13573;50.936;4.328;2023-02-26T02:06:28;2.20;99.90
25716;DHT22;13573;50.936;4.328;2023-02-26T02:08:55;1.00;99.90
25716;DHT22;13573;50.936;4.328;2023-02-26T02:11:23;1.70;99.90
25716;DHT22;13573;50.936;4.328;2023-02-26T02:13:58;1.00;99.90
25716;DHT22;13573;50.936;4.328;2023-02-26T02:16:38;1.70;99.90
25716;DHT22;13573;50.936;4.328;2023-02-26T02:19:17;2.40;99.90
25716;DHT22;13573;50.936;4.328;2023-02-26T02:21:47;2.20;99.90
25716;DHT22;13573;50.936;4.328;2023-02-26T02:24:18;2.50;99.90
25716;DHT22;13573;50.936;4.328;2023-02-26T02:26:55;3.00;99.90
25716;DHT22;13573;50.936;4.328;2023-02-26T02:32:29;1.40;99.90
25716;DHT22;13573;50.936;4.328;2023-02-26T02:35:08;2.00;99.90
25716;DHT22;13573;50.936;4.328;2023-02-26T02:40:18;2.80;99.90
25716;DHT22;13573;50.936;4.328;2023-02-26T02:42:59;2.00;99.90
25716;DHT22;13573;50.936;4.328;2023-02-26T02:45:36;2.20;99.90
25716;DHT22;13573;50.936;4.328;2023-02-26T02:48:07;1.80;99.90
25716;DHT22;13573;50.936;4.328;2023-02-26T02:50:37;2.30;99.90
25716;DHT22;13573;50.936;4.328;2023-02-26T02:55:42;2.40;99.90
25716;DHT22;13573;50.936;4.328;2023-02-26T02:58:16;2.50;99.90
25716;DHT22;13573;50.936;4.328;2023-02-26T03:00:48;2.10;99.90
25716;DHT22;13573;50.936;4.328;2023-02-26T03:03:19;1.90;99.90
25716;DHT22;13573;50.936;4.328;2023-02-26T03:08:16;2.30;99.90
25716;DHT22;13573;50.936;4.328;2023-02-26T03:10:43;2.60;99.90
25716;DHT22;13573;50.936;4.328;2023-02-26T03:13:17;2.20;99.90
25716;DHT22;13573;50.936;4.328;2023-02-26T03:16:23;1.90;99.90
25716;DHT22;13573;50.936;4.328;2023-02-26T03:18:58;1.80;99.90
25716;DHT22;13573;50.936;4.328;2023-02-26T03:21:30;2.20;99.90
25716;DHT22;13573;50.936;4.328;2023-02-26T03:26:53;2.00;99.90
25716;DHT22;13573;50.936;4.328;2023-02-26T03:29:39;1.90;99.90
25716;DHT22;13573;50.936;4.328;2023-02-26T03:32:06;2.00;99.90
25716;DHT22;13573;50.936;4.328;2023-02-26T03:34:42;1.60;99.90
25716;DHT22;13573;50.936;4.328;2023-02-26T03:37:22;1.90;99.90
25716;DHT22;13573;50.936;4.328;2023-02-26T03:39:53;1.80;99.90
25716;DHT22;13573;50.936;4.328;2023-02-26T03:45:13;2.30;99.90
25716;DHT22;13573;50.936;4.328;2023-02-26T03:47:45;1.90;99.90
25716;DHT22;13573;50.936;4.328;2023-02-26T03:50:19;1.70;99.90
25716;DHT22;13573;50.936;4.328;2023-02-26T03:52:49;2.00;99.90
25716;DHT22;13573;50.936;4.328;2023-02-26T03:55:40;1.70;99.90
25716;DHT22;13573;50.936;4.328;2023-02-26T03:58:07;2.00;99.90
25716;DHT22;13573;50.936;4.328;2023-02-26T04:00:36;1.20;99.90
25716;DHT22;13573;50.936;4.328;2023-02-26T04:03:11;1.80;99.90
25716;DHT22;13573;50.936;4.328;2023-02-26T04:05:41;1.70;99.90
25716;DHT22;13573;50.936;4.328;2023-02-26T04:08:08;1.50;99.90
25716;DHT22;13573;50.936;4.328;2023-02-26T04:10:41;1.50;99.90
25716;DHT22;13573;50.936;4.328;2023-02-26T04:13:08;1.70;99.90
25716;DHT22;13573;50.936;4.328;2023-02-26T04:15:35;1.40;99.90
25716;DHT22;13573;50.936;4.328;2023-02-26T04:18:02;1.50;99.90
25716;DHT22;13573;50.936;4.328;2023-02-26T04:20:30;1.50;99.90
25716;DHT22;13573;50.936;4.328;2023-02-26T04:22:56;1.30;99.90
25716;DHT22;13573;50.936;4.328;2023-02-26T04:25:23;1.70;99.90
25716;DHT22;13573;50.936;4.328;2023-02-26T04:30:17;1.40;99.90
25716;DHT22;13573;50.936;4.328;2023-02-26T04:32:44;1.50;99.90
25716;DHT22;13573;50.936;4.328;2023-02-26T04:35:11;1.60;99.90
25716;DHT22;13573;50.936;4.328;2023-02-26T04:37:39;1.50;99.90
25716;DHT22;13573;50.936;4.328;2023-02-26T04:40:06;1.60;99.90
25716;DHT22;13573;50.936;4.328;2023-02-26T04:42:34;1.30;99.90
25716;DHT22;13573;50.936;4.328;2023-02-26T04:45:00;1.40;99.90
25716;DHT22;13573;50.936;4.328;2023-02-26T04:49:54;1.70;99.90
25716;DHT22;13573;50.936;4.328;2023-02-26T04:52:20;1.60;99.90
25716;DHT22;13573;50.936;4.328;2023-02-26T04:54:48;1.30;99.90
25716;DHT22;13573;50.936;4.328;2023-02-26T04:57:15;1.60;99.90
25716;DHT22;13573;50.936;4.328;2023-02-26T04:59:42;1.40;99.90
25716;DHT22;13573;50.936;4.328;2023-02-26T05:02:09;1.50;99.90
25716;DHT22;13573;50.936;4.328;2023-02-26T05:04:36;1.40;99.90
25716;DHT22;13573;50.936;4.328;2023-02-26T05:07:03;1.50;99.90
25716;DHT22;13573;50.936;4.328;2023-02-26T05:09:29;2.40;99.90
25716;DHT22;13573;50.936;4.328;2023-02-26T05:11:56;1.20;99.90
25716;DHT22;13573;50.936;4.328;2023-02-26T05:14:23;1.20;99.90
25716;DHT22;13573;50.936;4.328;2023-02-26T05:16:49;1.10;99.90
25716;DHT22;13573;50.936;4.328;2023-02-26T05:21:43;2.80;99.90
25716;DHT22;13573;50.936;4.328;2023-02-26T05:24:09;0.90;99.90
25716;DHT22;13573;50.936;4.328;2023-02-26T05:26:36;0.90;99.90
25716;DHT22;13573;50.936;4.328;2023-02-26T05:29:03;0.70;99.90
25716;DHT22;13573;50.936;4.328;2023-02-26T05:31:29;0.70;99.90
25716;DHT22;13573;50.936;4.328;2023-02-26T05:33:56;1.30;99.90
25716;DHT22;13573;50.936;4.328;2023-02-26T05:36:23;1.50;99.90
25716;DHT22;13573;50.936;4.328;2023-02-26T05:38:50;0.80;99.90
25716;DHT22;13573;50.936;4.328;2023-02-26T05:41:18;0.90;99.90
25716;DHT22;13573;50.936;4.328;2023-02-26T05:43:45;0.90;99.90
25716;DHT22;13573;50.936;4.328;2023-02-26T05:46:12;0.80;99.90
25716;DHT22;13573;50.936;4.328;2023-02-26T05:48:40;0.90;99.90
25716;DHT22;13573;50.936;4.328;2023-02-26T05:51:06;0.70;99.90
25716;DHT22;13573;50.936;4.328;2023-02-26T05:53:34;0.70;99.90
25716;DHT22;13573;50.936;4.328;2023-02-26T05:56:00;0.70;99.90
25716;DHT22;13573;50.936;4.328;2023-02-26T05:58:27;0.70;99.90
25716;DHT22;13573;50.936;4.328;2023-02-26T06:00:57;0.60;99.90
25716;DHT22;13573;50.936;4.328;2023-02-26T06:03:24;0.60;99.90
25716;DHT22;13573;50.936;4.328;2023-02-26T06:05:51;0.70;99.90
25716;DHT22;13573;50.936;4.328;2023-02-26T06:08:17;0.60;99.90
25716;DHT22;13573;50.936;4.328;2023-02-26T06:10:44;0.60;99.90
25716;DHT22;13573;50.936;4.328;2023-02-26T06:13:12;0.60;99.90
25716;DHT22;13573;50.936;4.328;2023-02-26T06:15:38;0.70;99.90
25716;DHT22;13573;50.936;4.328;2023-02-26T06:18:05;0.40;99.90
25716;DHT22;13573;50.936;4.328;2023-02-26T06:20:31;0.30;99.90
25716;DHT22;13573;50.936;4.328;2023-02-26T06:22:58;0.50;99.90
25716;DHT22;13573;50.936;4.328;2023-02-26T06:25:25;0.40;99.90
25716;DHT22;13573;50.936;4.328;2023-02-26T06:27:51;0.70;99.90
25716;DHT22;13573;50.936;4.328;2023-02-26T06:30:18;0.60;99.90
25716;DHT22;13573;50.936;4.328;2023-02-26T06:32:44;1.20;99.90
25716;DHT22;13573;50.936;4.328;2023-02-26T06:35:11;0.50;99.90
25716;DHT22;13573;50.936;4.328;2023-02-26T06:37:39;0.50;99.90
25716;DHT22;13573;50.936;4.328;2023-02-26T06:40:07;0.70;99.90
25716;DHT22;13573;50.936;4.328;2023-02-26T06:42:36;1.70;99.90
25716;DHT22;13573;50.936;4.328;2023-02-26T06:45:03;0.70;99.90
25716;DHT22;13573;50.936;4.328;2023-02-26T06:47:30;0.80;99.90
25716;DHT22;13573;50.936;4.328;2023-02-26T06:52:23;0.50;99.90
25716;DHT22;13573;50.936;4.328;2023-02-26T06:54:51;1.00;99.90
25716;DHT22;13573;50.936;4.328;2023-02-26T06:57:17;0.10;99.90
25716;DHT22;13573;50.936;4.328;2023-02-26T06:59:44;0.50;99.90
25716;DHT22;13573;50.936;4.328;2023-02-26T07:04:41;2.50;99.90
25716;DHT22;13573;50.936;4.328;2023-02-26T07:07:08;2.80;99.90
25716;DHT22;13573;50.936;4.328;2023-02-26T07:09:34;3.80;99.90
25716;DHT22;13573;50.936;4.328;2023-02-26T07:12:01;3.30;99.90
25716;DHT22;13573;50.936;4.328;2023-02-26T07:14:28;3.90;99.90
25716;DHT22;13573;50.936;4.328;2023-02-26T07:16:57;4.40;99.90
25716;DHT22;13573;50.936;4.328;2023-02-26T07:19:24;4.60;99.90
25716;DHT22;13573;50.936;4.328;2023-02-26T07:21:50;4.80;99.90
25716;DHT22;13573;50.936;4.328;2023-02-26T07:24:17;5.10;99.90
25716;DHT22;13573;50.936;4.328;2023-02-26T07:26:44;5.00;99.90
25716;DHT22;13573;50.936;4.328;2023-02-26T07:29:10;5.40;99.90
25716;DHT22;13573;50.936;4.328;2023-02-26T07:31:37;5.50;99.90
25716;DHT22;13573;50.936;4.328;2023-02-26T07:34:04;5.30;99.90
25716;DHT22;13573;50.936;4.328;2023-02-26T07:36:30;5.70;99.90
25716;DHT22;13573;50.936;4.328;2023-02-26T07:41:24;6.70;99.90
25716;DHT22;13573;50.936;4.328;2023-02-26T07:43:50;7.20;99.90
25716;DHT22;13573;50.936;4.328;2023-02-26T07:46:17;7.30;99.90
25716;DHT22;13573;50.936;4.328;2023-02-26T07:48:44;6.40;99.90
25716;DHT22;13573;50.936;4.328;2023-02-26T07:51:11;7.90;99.90
25716;DHT22;13573;50.936;4.328;2023-02-26T07:53:37;7.70;99.90
25716;DHT22;13573;50.936;4.328;2023-02-26T07:56:04;8.50;99.90
25716;DHT22;13573;50.936;4.328;2023-02-26T07:58:31;9.80;99.90
25716;DHT22;13573;50.936;4.328;2023-02-26T08:03:25;9.30;99.90
25716;DHT22;13573;50.936;4.328;2023-02-26T08:05:51;9.60;99.90
25716;DHT22;13573;50.936;4.328;2023-02-26T08:08:18;9.40;99.90
25716;DHT22;13573;50.936;4.328;2023-02-26T08:10:44;9.40;99.90
25716;DHT22;13573;50.936;4.328;2023-02-26T08:13:11;9.90;99.90
25716;DHT22;13573;50.936;4.328;2023-02-26T08:15:38;9.60;99.90
25716;DHT22;13573;50.936;4.328;2023-02-26T08:18:06;10.40;99.90
25716;DHT22;13573;50.936;4.328;2023-02-26T08:20:33;9.10;99.90
25716;DHT22;13573;50.936;4.328;2023-02-26T08:23:01;9.20;99.90
25716;DHT22;13573;50.936;4.328;2023-02-26T08:25:28;8.90;99.90
25716;DHT22;13573;50.936;4.328;2023-02-26T08:27:55;9.00;99.90
25716;DHT22;13573;50.936;4.328;2023-02-26T08:32:50;10.20;99.90
25716;DHT22;13573;50.936;4.328;2023-02-26T08:35:17;9.70;99.90
25716;DHT22;13573;50.936;4.328;2023-02-26T08:37:44;9.30;99.90
25716;DHT22;13573;50.936;4.328;2023-02-26T08:40:11;10.20;99.90
25716;DHT22;13573;50.936;4.328;2023-02-26T08:42:38;10.30;99.90
25716;DHT22;13573;50.936;4.328;2023-02-26T08:45:05;10.20;99.90
25716;DHT22;13573;50.936;4.328;2023-02-26T08:47:32;9.30;99.90
25716;DHT22;13573;50.936;4.328;2023-02-26T08:49:59;9.80;99.90
25716;DHT22;13573;50.936;4.328;2023-02-26T08:52:27;9.70;99.90
25716;DHT22;13573;50.936;4.328;2023-02-26T08:54:53;9.10;99.90
25716;DHT22;13573;50.936;4.328;2023-02-26T08:59:47;9.00;99.90
25716;DHT22;13573;50.936;4.328;2023-02-26T09:02:14;9.30;99.90
25716;DHT22;13573;50.936;4.328;2023-02-26T09:04:41;9.30;99.90
25716;DHT22;13573;50.936;4.328;2023-02-26T09:07:08;9.60;99.90
25716;DHT22;13573;50.936;4.328;2023-02-26T09:09:35;9.00;99.90
25716;DHT22;13573;50.936;4.328;2023-02-26T09:12:01;8.50;99.90
25716;DHT22;13573;50.936;4.328;2023-02-26T09:14:28;8.30;99.90
25716;DHT22;13573;50.936;4.328;2023-02-26T09:16:55;8.50;99.90
25716;DHT22;13573;50.936;4.328;2023-02-26T09:19:21;8.80;99.90
25716;DHT22;13573;50.936;4.328;2023-02-26T09:21:48;9.60;99.90
25716;DHT22;13573;50.936;4.328;2023-02-26T09:24:16;9.30;99.90
25716;DHT22;13573;50.936;4.328;2023-02-26T09:26:43;9.20;99.90
25716;DHT22;13573;50.936;4.328;2023-02-26T09:29:09;9.40;99.90
25716;DHT22;13573;50.936;4.328;2023-02-26T09:31:38;9.90;99.90
25716;DHT22;13573;50.936;4.328;2023-02-26T09:34:04;11.20;99.90
25716;DHT22;13573;50.936;4.328;2023-02-26T09:36:31;10.90;99.90
25716;DHT22;13573;50.936;4.328;2023-02-26T09:38:58;11.60;99.90
25716;DHT22;13573;50.936;4.328;2023-02-26T09:41:40;10.90;99.90
25716;DHT22;13573;50.936;4.328;2023-02-26T09:44:14;10.10;99.90
25716;DHT22;13573;50.936;4.328;2023-02-26T09:49:31;9.20;99.90
25716;DHT22;13573;50.936;4.328;2023-02-26T09:52:10;9.40;99.90
25716;DHT22;13573;50.936;4.328;2023-02-26T09:54:38;9.50;99.90
25716;DHT22;13573;50.936;4.328;2023-02-26T09:57:05;8.90;99.90
25716;DHT22;13573;50.936;4.328;2023-02-26T09:59:35;7.50;99.90
25716;DHT22;13573;50.936;4.328;2023-02-26T10:02:28;8.60;99.90
25716;DHT22;13573;50.936;4.328;2023-02-26T10:07:51;9.50;99.90
25716;DHT22;13573;50.936;4.328;2023-02-26T10:10:32;9.60;99.90
25716;DHT22;13573;50.936;4.328;2023-02-26T10:13:00;9.70;99.90
25716;DHT22;13573;50.936;4.328;2023-02-26T10:15:34;10.10;99.90
25716;DHT22;13573;50.936;4.328;2023-02-26T10:18:18;9.10;99.90
25716;DHT22;13573;50.936;4.328;2023-02-26T10:20:55;10.50;99.90
25716;DHT22;13573;50.936;4.328;2023-02-26T10:23:50;10.40;99.90
25716;DHT22;13573;50.936;4.328;2023-02-26T10:26:22;11.70;99.90
25716;DHT22;13573;50.936;4.328;2023-02-26T10:28:58;12.70;99.90
25716;DHT22;13573;50.936;4.328;2023-02-26T10:34:10;14.10;98.50
25716;DHT22;13573;50.936;4.328;2023-02-26T10:36:46;13.80;99.30
25716;DHT22;13573;50.936;4.328;2023-02-26T10:39:31;11.40;99.90
25716;DHT22;13573;50.936;4.328;2023-02-26T10:42:01;12.10;99.90
25716;DHT22;13573;50.936;4.328;2023-02-26T10:44:43;11.60;99.60
25716;DHT22;13573;50.936;4.328;2023-02-26T10:47:14;11.60;99.90
25716;DHT22;13573;50.936;4.328;2023-02-26T10:49:51;10.10;99.90
25716;DHT22;13573;50.936;4.328;2023-02-26T10:52:23;12.10;99.90
25716;DHT22;13573;50.936;4.328;2023-02-26T10:55:01;11.90;99.90
25716;DHT22;13573;50.936;4.328;2023-02-26T10:57:30;11.70;99.90
25716;DHT22;13573;50.936;4.328;2023-02-26T10:59:59;13.50;99.90
25716;DHT22;13573;50.936;4.328;2023-02-26T11:02:36;12.30;99.90
25716;DHT22;13573;50.936;4.328;2023-02-26T11:05:04;13.60;97.50
25716;DHT22;13573;50.936;4.328;2023-02-26T11:07:34;12.80;99.90
25716;DHT22;13573;50.936;4.328;2023-02-26T11:10:02;12.10;99.90
25716;DHT22;13573;50.936;4.328;2023-02-26T11:12:31;11.50;99.90
25716;DHT22;13573;50.936;4.328;2023-02-26T11:15:00;12.80;98.10
25716;DHT22;13573;50.936;4.328;2023-02-26T11:17:29;12.30;97.00
25716;DHT22;13573;50.936;4.328;2023-02-26T11:20:01;12.80;97.50
25716;DHT22;13573;50.936;4.328;2023-02-26T11:22:32;13.40;99.90
25716;DHT22;13573;50.936;4.328;2023-02-26T11:25:02;12.60;99.90
25716;DHT22;13573;50.936;4.328;2023-02-26T11:27:34;11.70;99.90
25716;DHT22;13573;50.936;4.328;2023-02-26T11:30:04;11.90;99.90
25716;DHT22;13573;50.936;4.328;2023-02-26T11:32:33;12.30;99.90
25716;DHT22;13573;50.936;4.328;2023-02-26T11:35:00;11.90;97.20
25716;DHT22;13573;50.936;4.328;2023-02-26T11:37:33;12.10;96.90
25716;DHT22;13573;50.936;4.328;2023-02-26T11:40:03;11.70;99.90
25716;DHT22;13573;50.936;4.328;2023-02-26T11:42:35;11.40;97.80
25716;DHT22;13573;50.936;4.328;2023-02-26T11:45:04;11.40;99.90
25716;DHT22;13573;50.936;4.328;2023-02-26T11:47:33;13.60;99.20
25716;DHT22;13573;50.936;4.328;2023-02-26T11:50:03;11.50;97.40
25716;DHT22;13573;50.936;4.328;2023-02-26T11:52:35;11.50;97.60
25716;DHT22;13573;50.936;4.328;2023-02-26T11:55:12;11.70;99.90
25716;DHT22;13573;50.936;4.328;2023-02-26T11:57:33;9.20;99.90
25716;DHT22;13573;50.936;4.328;2023-02-26T12:00:00;10.70;98.60
25716;DHT22;13573;50.936;4.328;2023-02-26T12:02:33;10.20;99.90
25716;DHT22;13573;50.936;4.328;2023-02-26T12:05:04;11.80;99.90
25716;DHT22;13573;50.936;4.328;2023-02-26T12:07:31;11.10;99.90
25716;DHT22;13573;50.936;4.328;2023-02-26T12:09:58;11.10;97.30
25716;DHT22;13573;50.936;4.328;2023-02-26T12:12:34;11.60;99.90
25716;DHT22;13573;50.936;4.328;2023-02-26T12:15:16;10.40;96.60
25716;DHT22;13573;50.936;4.328;2023-02-26T12:17:57;11.70;98.40
25716;DHT22;13573;50.936;4.328;2023-02-26T12:20:27;11.30;98.30
25716;DHT22;13573;50.936;4.328;2023-02-26T12:23:05;11.40;99.90
25716;DHT22;13573;50.936;4.328;2023-02-26T12:28:42;13.20;99.90
25716;DHT22;13573;50.936;4.328;2023-02-26T12:31:21;12.90;97.40
25716;DHT22;13573;50.936;4.328;2023-02-26T12:47:14;13.40;95.20
25716;DHT22;13573;50.936;4.328;2023-02-26T12:50:01;14.00;93.80
25716;DHT22;13573;50.936;4.328;2023-02-26T12:52:40;12.80;93.70
25716;DHT22;13573;50.936;4.328;2023-02-26T12:55:18;12.70;99.90
25716;DHT22;13573;50.936;4.328;2023-02-26T12:57:56;12.90;99.90
25716;DHT22;13573;50.936;4.328;2023-02-26T13:00:28;11.90;99.90
25716;DHT22;13573;50.936;4.328;2023-02-26T13:06:10;12.40;94.30
25716;DHT22;13573;50.936;4.328;2023-02-26T13:08:56;13.10;99.90
25716;DHT22;13573;50.936;4.328;2023-02-26T13:11:39;14.40;99.90
25716;DHT22;13573;50.936;4.328;2023-02-26T13:14:03;14.30;99.90
25716;DHT22;13573;50.936;4.328;2023-02-26T13:16:39;14.50;99.00
25716;DHT22;13573;50.936;4.328;2023-02-26T13:19:21;13.10;99.90
25716;DHT22;13573;50.936;4.328;2023-02-26T13:21:53;11.60;99.90
25716;DHT22;13573;50.936;4.328;2023-02-26T13:26:53;12.80;99.90
25716;DHT22;13573;50.936;4.328;2023-02-26T13:29:28;13.20;93.20
25716;DHT22;13573;50.936;4.328;2023-02-26T13:32:09;14.60;96.30
25716;DHT22;13573;50.936;4.328;2023-02-26T13:34:43;13.50;97.90
25716;DHT22;13573;50.936;4.328;2023-02-26T13:37:30;12.60;98.20
25716;DHT22;13573;50.936;4.328;2023-02-26T13:40:10;12.40;97.90
25716;DHT22;13573;50.936;4.328;2023-02-26T13:42:38;13.90;90.80
25716;DHT22;13573;50.936;4.328;2023-02-26T13:45:17;14.20;91.00
25716;DHT22;13573;50.936;4.328;2023-02-26T13:50:40;11.70;97.80
25716;DHT22;13573;50.936;4.328;2023-02-26T13:55:48;13.20;98.30
25716;DHT22;13573;50.936;4.328;2023-02-26T13:58:27;13.60;97.90
25716;DHT22;13573;50.936;4.328;2023-02-26T14:01:07;13.30;97.60
25716;DHT22;13573;50.936;4.328;2023-02-26T14:03:40;13.90;97.70
25716;DHT22;13573;50.936;4.328;2023-02-26T14:06:20;13.30;97.90
25716;DHT22;13573;50.936;4.328;2023-02-26T14:08:43;13.40;90.80
25716;DHT22;13573;50.936;4.328;2023-02-26T14:14:08;14.40;90.40
25716;DHT22;13573;50.936;4.328;2023-02-26T14:16:34;14.30;88.10
25716;DHT22;13573;50.936;4.328;2023-02-26T14:19:13;13.10;89.20
25716;DHT22;13573;50.936;4.328;2023-02-26T14:21:45;12.00;97.70
25716;DHT22;13573;50.936;4.328;2023-02-26T14:24:20;12.20;90.60
25716;DHT22;13573;50.936;4.328;2023-02-26T14:26:49;11.60;91.00
25716;DHT22;13573;50.936;4.328;2023-02-26T14:29:22;10.10;97.80
25716;DHT22;13573;50.936;4.328;2023-02-26T14:32:14;11.50;90.30
25716;DHT22;13573;50.936;4.328;2023-02-26T14:34:46;12.10;90.80
25716;DHT22;13573;50.936;4.328;2023-02-26T14:37:14;11.50;97.80
25716;DHT22;13573;50.936;4.328;2023-02-26T14:39:47;11.50;97.60
25716;DHT22;13573;50.936;4.328;2023-02-26T14:42:22;11.80;91.00
25716;DHT22;13573;50.936;4.328;2023-02-26T14:44:53;11.80;91.70
25716;DHT22;13573;50.936;4.328;2023-02-26T14:47:19;11.80;97.60
25716;DHT22;13573;50.936;4.328;2023-02-26T14:49:47;12.10;90.90
25716;DHT22;13573;50.936;4.328;2023-02-26T14:52:31;12.70;98.10
25716;DHT22;13573;50.936;4.328;2023-02-26T15:00:47;13.70;97.70
25716;DHT22;13573;50.936;4.328;2023-02-26T15:08:56;13.10;91.10
25716;DHT22;13573;50.936;4.328;2023-02-26T15:14:16;14.00;89.80
25716;DHT22;13573;50.936;4.328;2023-02-26T15:16:49;13.30;90.90
25716;DHT22;13573;50.936;4.328;2023-02-26T15:19:39;13.60;98.50
25716;DHT22;13573;50.936;4.328;2023-02-26T15:22:17;13.20;97.70
25716;DHT22;13573;50.936;4.328;2023-02-26T15:24:40;13.10;90.80
25716;DHT22;13573;50.936;4.328;2023-02-26T15:27:10;12.20;99.00
25716;DHT22;13573;50.936;4.328;2023-02-26T15:32:21;11.60;99.90
25716;DHT22;13573;50.936;4.328;2023-02-26T15:34:47;9.10;99.90
25716;DHT22;13573;50.936;4.328;2023-02-26T15:37:21;10.30;94.50
25716;DHT22;13573;50.936;4.328;2023-02-26T15:39:50;9.90;94.80
25716;DHT22;13573;50.936;4.328;2023-02-26T15:42:18;8.80;99.90
25716;DHT22;13573;50.936;4.328;2023-02-26T15:44:46;8.80;95.30
25716;DHT22;13573;50.936;4.328;2023-02-26T15:47:15;7.60;99.90
25716;DHT22;13573;50.936;4.328;2023-02-26T15:49:45;7.60;99.90
25716;DHT22;13573;50.936;4.328;2023-02-26T15:52:16;8.30;99.90
25716;DHT22;13573;50.936;4.328;2023-02-26T15:54:48;8.30;97.40
25716;DHT22;13573;50.936;4.328;2023-02-26T15:57:17;8.50;96.60
25716;DHT22;13573;50.936;4.328;2023-02-26T15:59:49;8.60;97.00
25716;DHT22;13573;50.936;4.328;2023-02-26T16:02:19;8.50;97.70
25716;DHT22;13573;50.936;4.328;2023-02-26T16:04:46;8.20;99.90
25716;DHT22;13573;50.936;4.328;2023-02-26T16:07:13;8.50;97.90
25716;DHT22;13573;50.936;4.328;2023-02-26T16:09:45;7.60;99.90
25716;DHT22;13573;50.936;4.328;2023-02-26T16:12:15;6.50;99.90
25716;DHT22;13573;50.936;4.328;2023-02-26T16:14:49;7.60;99.90
25716;DHT22;13573;50.936;4.328;2023-02-26T16:17:22;7.50;99.90
25716;DHT22;13573;50.936;4.328;2023-02-26T16:19:49;7.20;99.90
25716;DHT22;13573;50.936;4.328;2023-02-26T16:22:21;7.40;99.90
25716;DHT22;13573;50.936;4.328;2023-02-26T16:24:54;7.40;99.90
25716;DHT22;13573;50.936;4.328;2023-02-26T16:27:24;6.50;99.90
25716;DHT22;13573;50.936;4.328;2023-02-26T16:29:56;7.50;99.90
25716;DHT22;13573;50.936;4.328;2023-02-26T16:32:25;7.50;99.70
25716;DHT22;13573;50.936;4.328;2023-02-26T16:34:55;7.50;99.90
25716;DHT22;13573;50.936;4.328;2023-02-26T16:37:30;6.40;99.90
25716;DHT22;13573;50.936;4.328;2023-02-26T16:42:50;7.40;99.10
25716;DHT22;13573;50.936;4.328;2023-02-26T16:45:42;6.30;99.90
25716;DHT22;13573;50.936;4.328;2023-02-26T16:48:16;7.30;99.90
25716;DHT22;13573;50.936;4.328;2023-02-26T16:50:43;6.80;99.90
25716;DHT22;13573;50.936;4.328;2023-02-26T16:53:18;6.70;99.90
25716;DHT22;13573;50.936;4.328;2023-02-26T16:55:50;6.90;99.90
25716;DHT22;13573;50.936;4.328;2023-02-26T16:58:19;6.90;99.90
25716;DHT22;13573;50.936;4.328;2023-02-26T17:00:51;7.20;99.90
25716;DHT22;13573;50.936;4.328;2023-02-26T17:03:20;7.30;99.90
25716;DHT22;13573;50.936;4.328;2023-02-26T17:05:57;6.80;99.90
25716;DHT22;13573;50.936;4.328;2023-02-26T17:08:30;6.70;99.90
25716;DHT22;13573;50.936;4.328;2023-02-26T17:11:03;6.90;99.90
25716;DHT22;13573;50.936;4.328;2023-02-26T17:13:33;6.50;99.90
25716;DHT22;13573;50.936;4.328;2023-02-26T17:16:03;6.40;99.90
25716;DHT22;13573;50.936;4.328;2023-02-26T17:18:32;6.70;99.90
25716;DHT22;13573;50.936;4.328;2023-02-26T17:21:00;5.20;99.90
25716;DHT22;13573;50.936;4.328;2023-02-26T17:23:31;5.20;99.90
25716;DHT22;13573;50.936;4.328;2023-02-26T17:26:00;6.60;99.90
25716;DHT22;13573;50.936;4.328;2023-02-26T17:28:32;5.30;99.90
25716;DHT22;13573;50.936;4.328;2023-02-26T17:31:04;6.80;99.90
25716;DHT22;13573;50.936;4.328;2023-02-26T17:33:31;7.20;99.90
25716;DHT22;13573;50.936;4.328;2023-02-26T17:35:59;6.80;99.90
25716;DHT22;13573;50.936;4.328;2023-02-26T17:38:27;6.10;99.90
25716;DHT22;13573;50.936;4.328;2023-02-26T17:40:54;4.90;99.90
25716;DHT22;13573;50.936;4.328;2023-02-26T17:43:23;5.20;99.90
25716;DHT22;13573;50.936;4.328;2023-02-26T17:45:50;6.10;99.90
25716;DHT22;13573;50.936;4.328;2023-02-26T17:48:18;6.10;99.90